Terminal Aerodrome Forecast
Issued by NWS Cleveland, OH

Home | Current Version | Previous Version | Graphics & Text | Print | Product List | Glossary On
Versions: 1 2 3 4 5 6 7 8 9 10 11 12 13 14 15 16
000
FTUS41 KCLE 260535
TAFTOL
TAF
KTOL 260535Z 2606/2706 26005KT 5SM BR SCT020 BKN050
      TEMPO 2607/2611 2SM BR
     FM261100 VRB04KT 3SM BR SCT020
      TEMPO 2611/2615 BKN020
     FM261500 06005KT P6SM FEW020 SCT250=

USA.gov is the U.S. government's official web portal to all federal, state and local government web resources and services.